Time;durP1;ratioP1;P1;durP2;ratioP2;P2;SDS_P1;SDS_P2;PMS_P1;PMS_P2;Temp;Humidity;BMP_temperature;BMP_pressure;BME280_temperature;BME280_humidity;BME280_pressure;Samples;Min_cycle;Max_cycle;Signal;HPM_P1;HPM_P2
2022/01/23 00:01:08;;;;;;;45.33;21.65;;;7.80;77.50;;;;;;4987076;28;20202;-88
2022/01/23 00:03:34;;;;;;;42.20;20.92;;;7.90;77.60;;;;;;4996629;28;20252;-88
2022/01/23 00:06:00;;;;;;;39.00;21.00;;;7.90;77.40;;;;;;4996478;28;20786;-88
2022/01/23 00:08:25;;;;;;;43.13;22.07;;;7.80;77.40;;;;;;4997974;28;20468;-88
2022/01/23 00:10:52;;;;;;;37.13;20.53;;;7.80;77.50;;;;;;4997989;28;20605;-88
2022/01/23 00:18:33;;;;;;;37.28;20.65;;;7.90;77.50;;;;;;4976818;28;20219;-88
2022/01/23 00:20:59;;;;;;;37.85;21.50;;;7.90;77.30;;;;;;4974001;28;20199;-88
2022/01/23 00:23:32;;;;;;;39.95;21.40;;;7.90;77.30;;;;;;4995023;28;20176;-88
2022/01/23 00:31:36;;;;;;;44.05;20.83;;;7.90;77.30;;;;;;4997376;28;20597;-88
2022/01/23 00:34:02;;;;;;;46.13;22.10;;;7.90;76.80;;;;;;4997541;28;20297;-88
2022/01/23 00:36:30;;;;;;;45.07;22.10;;;7.80;76.90;;;;;;5015563;28;20206;-88
2022/01/23 00:38:56;;;;;;;42.25;22.35;;;7.80;77.20;;;;;;4994360;28;20431;-88
2022/01/23 00:41:22;;;;;;;41.65;22.10;;;7.90;78.20;;;;;;4994365;28;20690;-88
2022/01/23 00:43:49;;;;;;;36.17;21.50;;;7.90;77.40;;;;;;5006577;28;20202;-89
2022/01/23 00:51:21;;;;;;;41.10;20.23;;;7.90;76.30;;;;;;4996888;28;20217;-89
2022/01/23 00:53:47;;;;;;;39.00;20.25;;;7.70;76.80;;;;;;4997501;28;20581;-89
2022/01/23 00:56:13;;;;;;;43.67;22.70;;;7.70;77.40;;;;;;4997543;28;20204;-89
2022/01/23 00:58:39;;;;;;;40.33;21.73;;;7.70;77.60;;;;;;4999862;28;20189;-89
2022/01/23 01:01:05;;;;;;;46.00;24.15;;;7.80;77.70;;;;;;5006911;28;20461;-88
2022/01/23 01:03:30;;;;;;;40.00;21.17;;;7.80;77.80;;;;;;5015790;28;20202;-88
2022/01/23 01:05:56;;;;;;;40.10;22.40;;;7.90;77.80;;;;;;5022873;28;20195;-88
2022/01/23 01:08:22;;;;;;;38.30;20.20;;;7.90;77.70;;;;;;5000273;28;20270;-88
2022/01/23 01:11:10;;;;;;;39.07;19.47;;;7.90;77.60;;;;;;5002090;28;20178;-89
2022/01/23 01:35:21;;;;;;;46.00;22.55;;;7.80;77.30;;;;;;5002293;28;21022;-89
2022/01/23 01:37:47;;;;;;;34.17;18.10;;;7.80;77.30;;;;;;4994541;28;20187;-89
2022/01/23 01:40:13;;;;;;;39.93;18.77;;;7.80;77.40;;;;;;4994136;28;20222;-89
2022/01/23 01:42:39;;;;;;;39.22;20.10;;;7.70;77.60;;;;;;5000771;28;20512;-89
2022/01/23 01:45:05;;;;;;;33.60;19.50;;;7.70;77.80;;;;;;4999915;28;20237;-88
2022/01/23 01:47:31;;;;;;;37.15;18.55;;;7.70;77.80;;;;;;5007140;28;20230;-85
2022/01/23 01:49:57;;;;;;;37.23;20.57;;;7.70;77.80;;;;;;5018210;28;20187;-86
2022/01/23 01:52:23;;;;;;;43.97;20.00;;;7.80;77.80;;;;;;5018082;28;20217;-88
2022/01/23 01:54:58;;;;;;;38.85;20.15;;;7.80;77.80;;;;;;5007974;28;20203;-89
2022/01/23 01:57:28;;;;;;;33.00;19.38;;;7.80;77.80;;;;;;4987423;28;20182;-89
2022/01/23 02:10:46;;;;;;;36.20;19.53;;;8.10;77.30;;;;;;5013690;28;20182;-89
2022/01/23 02:13:15;;;;;;;43.15;21.02;;;8.10;77.30;;;;;;4992304;28;20501;-89
2022/01/23 02:51:05;;;;;;;33.92;20.60;;;8.00;76.70;;;;;;5002604;28;20675;-87
2022/01/23 02:56:32;;;;;;;42.47;22.20;;;8.00;77.10;;;;;;4998623;28;20185;-87
2022/01/23 02:59:00;;;;;;;41.08;22.20;;;8.00;77.20;;;;;;4995382;28;20178;-87
2022/01/23 03:01:32;;;;;;;47.92;22.45;;;8.10;77.20;;;;;;4995411;28;20670;-87
2022/01/23 03:04:03;;;;;;;37.83;21.30;;;8.50;76.70;;;;;;4996117;28;20191;-88
2022/01/23 03:14:44;;;;;;;38.63;20.77;;;8.30;75.00;;;;;;5006802;28;20576;-87
2022/01/23 03:33:19;;;;;;;43.65;22.60;;;7.80;77.50;;;;;;5001922;28;20281;-87
2022/01/23 03:35:45;;;;;;;46.92;21.42;;;8.00;77.50;;;;;;4995500;28;20207;-87
2022/01/23 03:38:11;;;;;;;32.90;20.00;;;8.10;77.40;;;;;;5000273;28;20250;-87
2022/01/23 03:40:37;;;;;;;40.90;22.00;;;8.10;77.30;;;;;;4995508;28;20198;-87
2022/01/23 03:43:11;;;;;;;37.00;20.63;;;8.20;77.20;;;;;;4995351;28;20179;-87
2022/01/23 03:50:38;;;;;;;41.23;22.17;;;8.20;76.60;;;;;;5000746;28;20175;-87
2022/01/23 03:53:05;;;;;;;40.25;19.52;;;8.20;76.70;;;;;;5013249;28;20503;-87
2022/01/23 03:55:31;;;;;;;43.22;22.10;;;8.10;76.80;;;;;;5000400;28;20215;-87
2022/01/23 03:57:57;;;;;;;38.60;20.85;;;8.20;76.70;;;;;;5005359;28;20179;-88
2022/01/23 04:00:23;;;;;;;39.90;21.77;;;8.30;76.40;;;;;;4998796;28;20643;-88
2022/01/23 04:02:49;;;;;;;35.78;20.17;;;8.30;76.30;;;;;;5007751;28;20177;-88
2022/01/23 04:05:16;;;;;;;39.00;22.55;;;8.30;76.40;;;;;;4999794;28;20197;-88
2022/01/23 04:07:41;;;;;;;42.00;21.30;;;8.50;75.40;;;;;;5002113;28;20206;-87
2022/01/23 04:10:09;;;;;;;41.93;22.60;;;8.50;74.80;;;;;;4996409;28;20184;-88
2022/01/23 05:01:07;;;;;;;49.67;23.17;;;8.30;75.90;;;;;;4998772;28;20273;-87
2022/01/23 05:04:07;;;;;;;47.80;23.15;;;8.30;75.50;;;;;;4995987;28;20669;-88
2022/01/23 05:06:37;;;;;;;45.15;24.17;;;8.00;75.90;;;;;;5012337;28;20240;-87
2022/01/23 05:09:05;;;;;;;43.50;22.23;;;7.80;76.70;;;;;;4993746;28;20175;-87
2022/01/23 05:11:31;;;;;;;47.65;21.05;;;7.80;77.90;;;;;;4993450;28;20214;-87
2022/01/23 05:13:57;;;;;;;39.13;22.30;;;7.90;77.50;;;;;;4992687;28;20221;-87
2022/01/23 05:16:23;;;;;;;45.60;23.40;;;8.00;77.50;;;;;;4994222;28;20643;-87
2022/01/23 05:18:48;;;;;;;52.33;24.43;;;8.00;77.40;;;;;;4993570;28;20202;-88
2022/01/23 05:23:46;;;;;;;45.03;21.63;;;7.80;77.40;;;;;;4994347;28;20808;-88
2022/01/23 05:26:12;;;;;;;45.23;21.27;;;7.80;77.50;;;;;;4994384;28;20184;-88
2022/01/23 05:28:37;;;;;;;49.17;24.77;;;7.80;77.60;;;;;;4994211;28;20431;-87
2022/01/23 05:31:03;;;;;;;44.37;22.07;;;7.80;77.50;;;;;;4996721;28;21183;-88
2022/01/23 05:33:29;;;;;;;39.40;21.23;;;7.90;77.80;;;;;;4994824;28;20183;-87
2022/01/23 05:35:54;;;;;;;39.80;21.80;;;8.20;77.40;;;;;;4994877;28;20226;-87
2022/01/23 05:38:20;;;;;;;43.47;21.03;;;8.30;76.70;;;;;;4998284;28;20185;-87
2022/01/23 05:40:54;;;;;;;39.33;20.77;;;8.20;77.10;;;;;;5009455;28;20238;-87
2022/01/23 05:43:20;;;;;;;45.42;24.48;;;8.00;76.50;;;;;;4996431;28;20189;-87
2022/01/23 05:45:51;;;;;;;41.77;23.07;;;8.00;77.00;;;;;;4996666;28;20599;-87
2022/01/23 05:48:18;;;;;;;42.45;22.63;;;8.00;77.10;;;;;;4995674;28;20171;-87
2022/01/23 05:50:45;;;;;;;43.38;21.60;;;8.00;77.20;;;;;;4993755;28;20190;-88
2022/01/23 05:53:11;;;;;;;38.78;22.15;;;7.90;77.40;;;;;;4995722;28;20261;-87
2022/01/23 05:55:37;;;;;;;45.65;24.38;;;8.00;77.50;;;;;;4994670;28;20226;-87
2022/01/23 05:58:03;;;;;;;46.90;21.67;;;8.20;77.30;;;;;;4993085;28;20644;-88
2022/01/23 06:00:29;;;;;;;42.30;22.85;;;8.30;76.90;;;;;;4996743;28;20492;-88
2022/01/23 06:02:54;;;;;;;46.23;21.73;;;8.30;76.70;;;;;;4995360;28;20182;-87
2022/01/23 06:05:20;;;;;;;40.00;20.73;;;8.20;76.60;;;;;;4993086;28;20195;-87
2022/01/23 06:07:48;;;;;;;50.67;22.93;;;8.10;77.00;;;;;;4995269;28;20614;-87
2022/01/23 06:10:22;;;;;;;51.72;23.45;;;8.10;77.10;;;;;;5001088;28;20422;-87
2022/01/23 06:12:48;;;;;;;42.60;22.67;;;8.30;76.20;;;;;;4993914;28;20194;-87
2022/01/23 06:15:13;;;;;;;49.50;25.45;;;8.20;75.40;;;;;;4985520;28;20610;-87
2022/01/23 06:17:39;;;;;;;44.60;22.03;;;8.30;75.50;;;;;;4995874;28;20237;-87
2022/01/23 06:20:08;;;;;;;43.73;21.17;;;8.20;75.50;;;;;;4992886;28;20202;-87
2022/01/23 06:22:34;;;;;;;48.95;24.48;;;8.00;76.00;;;;;;4993919;28;20182;-87
2022/01/23 06:24:59;;;;;;;37.20;22.23;;;7.90;76.70;;;;;;4995282;28;20202;-87
2022/01/23 06:27:28;;;;;;;42.53;23.13;;;7.90;77.20;;;;;;5005108;28;20244;-87
2022/01/23 06:29:53;;;;;;;48.90;22.48;;;7.80;77.40;;;;;;4995509;28;20266;-87
2022/01/23 06:32:19;;;;;;;44.50;22.17;;;7.70;77.70;;;;;;4995873;28;20226;-86
2022/01/23 06:34:46;;;;;;;41.53;22.90;;;7.70;77.90;;;;;;4995559;28;20245;-86
2022/01/23 06:37:12;;;;;;;53.20;22.65;;;7.70;78.00;;;;;;4994028;28;20178;-89
2022/01/23 06:39:38;;;;;;;49.80;23.27;;;7.80;78.10;;;;;;4997009;28;20189;-88
2022/01/23 06:42:04;;;;;;;47.67;22.57;;;7.90;78.10;;;;;;5012248;28;20390;-89
2022/01/23 06:44:31;;;;;;;44.17;22.30;;;7.90;77.90;;;;;;5015059;28;20528;-89
2022/01/23 06:46:57;;;;;;;44.08;22.38;;;7.90;77.90;;;;;;4999899;28;20554;-89
2022/01/23 06:49:23;;;;;;;49.60;23.33;;;7.80;77.80;;;;;;4999673;28;20182;-90
2022/01/23 06:51:49;;;;;;;53.50;24.27;;;7.80;77.90;;;;;;4999592;28;20434;-90
2022/01/23 06:54:15;;;;;;;45.08;22.73;;;7.70;78.00;;;;;;5006096;28;20441;-89
2022/01/23 06:56:41;;;;;;;44.13;21.98;;;7.70;78.20;;;;;;5014122;28;20224;-90
2022/01/23 06:59:07;;;;;;;52.17;23.03;;;7.80;78.30;;;;;;5010188;28;20182;-88
2022/01/23 07:01:32;;;;;;;47.33;23.67;;;8.10;77.80;;;;;;5006182;28;20212;-89
2022/01/23 07:03:58;;;;;;;39.20;22.83;;;8.30;76.80;;;;;;5003126;28;20485;-89
2022/01/23 07:06:24;;;;;;;44.80;22.70;;;8.40;76.20;;;;;;5002768;28;20258;-89
2022/01/23 07:08:50;;;;;;;46.70;21.90;;;8.30;76.00;;;;;;5004332;28;20182;-90
2022/01/23 07:11:15;;;;;;;53.10;24.60;;;8.20;76.10;;;;;;4998671;28;20183;-90
2022/01/23 07:13:41;;;;;;;55.47;21.38;;;8.00;76.50;;;;;;5000721;28;20179;-90
2022/01/23 07:16:07;;;;;;;54.87;23.10;;;7.90;76.90;;;;;;5000530;28;20218;-90
2022/01/23 07:18:33;;;;;;;43.37;21.83;;;7.90;77.40;;;;;;5003230;28;20476;-90
2022/01/23 07:20:59;;;;;;;51.17;24.40;;;7.90;77.70;;;;;;5000675;28;20214;-90
2022/01/23 07:23:24;;;;;;;42.70;22.70;;;8.00;77.80;;;;;;5015392;28;20429;-89
2022/01/23 07:25:51;;;;;;;46.70;21.63;;;8.20;77.30;;;;;;5022710;28;20210;-88
2022/01/23 07:28:20;;;;;;;47.30;24.58;;;8.30;77.00;;;;;;5031645;28;20250;-89
2022/01/23 07:33:14;;;;;;;54.92;23.23;;;7.90;77.30;;;;;;5018382;28;20918;-89
2022/01/23 07:35:40;;;;;;;51.50;23.13;;;7.90;77.80;;;;;;5001825;28;20202;-90
2022/01/23 07:38:07;;;;;;;43.27;23.70;;;8.10;77.70;;;;;;5019824;28;20189;-90
2022/01/23 07:40:33;;;;;;;43.03;23.85;;;8.10;77.00;;;;;;5001800;28;20461;-90
2022/01/23 07:42:59;;;;;;;49.77;24.13;;;8.10;76.90;;;;;;5001723;28;20643;-90
2022/01/23 07:45:24;;;;;;;51.93;23.80;;;8.20;76.80;;;;;;5018899;28;20425;-88
2022/01/23 07:47:50;;;;;;;48.87;26.27;;;8.20;76.50;;;;;;5001381;28;20174;-90
2022/01/23 07:50:16;;;;;;;49.40;25.43;;;8.00;76.80;;;;;;5019546;28;20183;-90
2022/01/23 07:52:43;;;;;;;47.50;23.33;;;8.20;77.20;;;;;;5001885;28;20444;-89
2022/01/23 07:55:11;;;;;;;46.47;23.73;;;8.10;76.50;;;;;;4998605;28;20202;-90
2022/01/23 07:57:38;;;;;;;48.75;23.48;;;8.30;76.70;;;;;;4998255;28;20237;-89
2022/01/23 08:00:06;;;;;;;50.58;25.00;;;8.40;76.40;;;;;;4998317;28;20210;-89
2022/01/23 08:02:32;;;;;;;51.05;23.70;;;8.20;76.40;;;;;;5016820;28;20201;-89
2022/01/23 08:05:09;;;;;;;45.27;23.20;;;8.00;76.80;;;;;;4992002;28;20211;-89
2022/01/23 08:07:36;;;;;;;44.60;23.48;;;7.80;77.30;;;;;;4982136;28;20417;-89
2022/01/23 08:10:05;;;;;;;45.53;23.90;;;7.80;77.70;;;;;;4979274;28;20175;-89
2022/01/23 08:12:33;;;;;;;50.08;24.58;;;7.80;77.90;;;;;;4978117;28;20686;-89
2022/01/23 08:15:00;;;;;;;54.50;24.83;;;7.90;78.10;;;;;;4978282;28;20269;-90
2022/01/23 08:17:26;;;;;;;53.53;24.90;;;8.30;77.60;;;;;;4995689;28;20199;-90
2022/01/23 08:20:00;;;;;;;52.28;25.52;;;8.30;76.80;;;;;;4978574;28;20179;-90
2022/01/23 08:22:28;;;;;;;49.95;22.70;;;8.40;76.50;;;;;;4959481;28;20664;-89
2022/01/23 08:24:55;;;;;;;54.15;25.70;;;8.40;76.30;;;;;;4959672;28;20257;-89
2022/01/23 08:27:26;;;;;;;50.20;22.95;;;8.40;76.50;;;;;;4960686;28;20207;-89
2022/01/23 08:29:52;;;;;;;44.60;23.55;;;8.40;76.30;;;;;;4961636;28;20199;-90
2022/01/23 08:32:18;;;;;;;46.00;24.53;;;8.30;76.60;;;;;;4960909;28;20183;-90
2022/01/23 08:34:43;;;;;;;54.20;26.10;;;8.30;76.90;;;;;;4965051;28;20436;-89
2022/01/23 08:37:09;;;;;;;44.70;21.77;;;8.30;77.00;;;;;;4965804;28;20420;-88
2022/01/23 08:39:37;;;;;;;42.72;23.13;;;8.20;77.00;;;;;;4962430;28;20179;-89
2022/01/23 08:42:15;;;;;;;46.78;24.45;;;8.00;77.10;;;;;;4959348;28;20274;-89
2022/01/23 08:44:42;;;;;;;55.63;25.52;;;8.10;77.40;;;;;;4958737;28;20203;-89
2022/01/23 08:47:07;;;;;;;38.17;20.25;;;8.20;76.40;;;;;;4959466;28;20768;-89
2022/01/23 08:49:36;;;;;;;36.23;18.97;;;8.40;76.70;;;;;;4977816;28;20176;-89
2022/01/23 08:52:02;;;;;;;47.00;22.88;;;8.50;78.00;;;;;;4959619;28;20426;-89
2022/01/23 08:54:28;;;;;;;48.03;24.05;;;8.50;77.80;;;;;;4975738;28;20283;-89
2022/01/23 08:56:55;;;;;;;45.47;24.47;;;8.70;77.30;;;;;;4959201;28;20289;-88
2022/01/23 08:59:21;;;;;;;45.10;24.70;;;8.80;76.60;;;;;;4958801;28;20435;-88
2022/01/23 09:01:47;;;;;;;49.42;25.70;;;8.90;76.10;;;;;;4958886;28;20305;-88
2022/01/23 09:04:15;;;;;;;46.50;23.02;;;8.90;75.40;;;;;;4960023;28;20700;-88
2022/01/23 09:06:46;;;;;;;41.33;23.20;;;8.90;75.40;;;;;;4959136;28;20279;-90
2022/01/23 09:09:19;;;;;;;48.58;24.13;;;8.90;75.40;;;;;;4959143;28;20659;-88
2022/01/23 09:12:00;;;;;;;56.70;23.80;;;8.90;75.80;;;;;;4977682;28;20175;-89
2022/01/23 09:14:26;;;;;;;48.55;24.38;;;9.00;76.00;;;;;;4977637;28;20210;-89
2022/01/23 09:16:53;;;;;;;51.60;24.65;;;8.70;75.80;;;;;;4978308;28;20183;-89
2022/01/23 09:19:21;;;;;;;50.92;27.48;;;8.50;76.10;;;;;;4994779;28;20199;-89
2022/01/23 09:21:50;;;;;;;48.03;23.40;;;8.20;76.50;;;;;;4976671;28;20234;-90
2022/01/23 09:24:21;;;;;;;44.33;24.35;;;8.30;77.00;;;;;;4976789;28;20241;-90
2022/01/23 09:26:52;;;;;;;48.88;26.02;;;8.40;77.00;;;;;;4977546;28;20254;-88
2022/01/23 09:30:05;;;;;;;42.60;20.55;;;8.30;77.00;;;;;;4975829;28;20187;-88
2022/01/23 09:32:20;;;;;;;51.97;23.70;;;8.30;77.30;;;;;;5008994;28;20205;-88
2022/01/23 09:34:46;;;;;;;46.72;23.13;;;8.60;76.40;;;;;;4981388;28;20218;-90
2022/01/23 09:37:15;;;;;;;50.40;24.35;;;8.70;76.40;;;;;;4978019;28;20211;-90
2022/01/23 09:39:45;;;;;;;43.88;25.35;;;8.80;75.70;;;;;;4977452;28;20262;-89
2022/01/23 09:42:15;;;;;;;44.13;22.88;;;8.90;75.10;;;;;;4978254;28;20206;-89
2022/01/23 09:44:48;;;;;;;53.22;26.15;;;8.90;75.30;;;;;;4968055;28;20555;-88
2022/01/23 09:47:16;;;;;;;48.97;22.80;;;9.10;76.20;;;;;;4978929;28;20163;-89
2022/01/23 09:49:43;;;;;;;40.45;22.95;;;9.20;74.40;;;;;;4978657;28;20175;-89
2022/01/23 09:52:11;;;;;;;47.70;23.30;;;9.10;74.30;;;;;;4981568;28;20247;-89
2022/01/23 09:54:39;;;;;;;49.78;24.08;;;9.20;74.50;;;;;;4982035;28;20202;-88
2022/01/23 09:57:07;;;;;;;51.67;24.63;;;9.30;74.60;;;;;;4989493;28;20186;-89
2022/01/23 09:59:33;;;;;;;40.13;20.80;;;9.20;74.20;;;;;;4990583;28;20186;-88
2022/01/23 10:02:01;;;;;;;46.13;23.17;;;9.10;75.50;;;;;;4986330;28;20306;-90
2022/01/23 10:04:27;;;;;;;47.00;22.67;;;9.20;74.70;;;;;;4987500;28;20199;-89
2022/01/23 10:06:54;;;;;;;41.17;23.20;;;9.20;74.60;;;;;;4996887;28;20179;-90
2022/01/23 10:09:25;;;;;;;50.25;23.05;;;9.10;74.40;;;;;;4998564;28;20163;-90
2022/01/23 10:11:51;;;;;;;49.28;26.33;;;9.30;73.90;;;;;;5000240;28;20211;-90
2022/01/23 10:14:19;;;;;;;52.50;25.67;;;9.20;73.40;;;;;;5000234;28;20207;-90
2022/01/23 10:16:47;;;;;;;44.15;24.88;;;9.30;73.20;;;;;;4994583;28;20198;-89
2022/01/23 10:19:14;;;;;;;55.05;23.20;;;9.30;73.00;;;;;;4979023;28;20202;-89
2022/01/23 10:21:40;;;;;;;45.05;24.15;;;9.30;72.80;;;;;;4977507;28;20741;-89
2022/01/23 10:24:07;;;;;;;42.70;23.80;;;9.20;72.80;;;;;;4976584;28;20195;-91
2022/01/23 10:26:52;;;;;;;41.35;23.23;;;9.10;73.00;;;;;;4974989;28;20278;-89
2022/01/23 10:29:33;;;;;;;56.78;23.13;;;8.80;73.70;;;;;;4976370;28;20631;-90
2022/01/23 10:32:03;;;;;;;55.40;25.80;;;8.50;74.30;;;;;;4986186;28;20179;-90
2022/01/23 10:34:43;;;;;;;39.85;21.77;;;8.50;74.70;;;;;;4982615;28;20791;-90
2022/01/23 10:37:10;;;;;;;36.63;21.20;;;8.90;74.50;;;;;;4980837;28;20623;-89
2022/01/23 10:39:41;;;;;;;42.05;22.05;;;9.10;73.40;;;;;;4980971;28;20187;-89
2022/01/23 10:51:29;;;;;;;42.13;23.92;;;9.40;71.90;;;;;;4995497;28;20187;-89
2022/01/23 10:54:05;;;;;;;35.17;19.45;;;9.40;71.50;;;;;;4976041;28;20229;-90
2022/01/23 10:56:54;;;;;;;47.80;22.70;;;9.40;71.40;;;;;;4966800;28;20179;-89
2022/01/23 10:59:20;;;;;;;43.30;22.95;;;9.40;71.20;;;;;;4975894;28;20180;-89
2022/01/23 11:02:07;;;;;;;51.17;24.02;;;9.50;71.50;;;;;;4993329;28;20261;-89
2022/01/23 11:05:12;;;;;;;44.17;22.38;;;9.50;71.80;;;;;;4974962;28;20679;-89
2022/01/23 11:07:43;;;;;;;43.00;22.45;;;9.50;71.90;;;;;;4974018;28;20179;-89
2022/01/23 11:10:14;;;;;;;46.70;24.48;;;9.50;71.60;;;;;;4975149;28;20282;-89
2022/01/23 11:18:08;;;;;;;40.75;20.92;;;9.30;72.30;;;;;;4990833;28;20238;-90
2022/01/23 11:20:49;;;;;;;36.45;19.58;;;9.50;71.70;;;;;;4975450;28;20258;-89
2022/01/23 11:23:27;;;;;;;35.78;20.40;;;9.60;71.20;;;;;;4977551;28;20171;-90
2022/01/23 11:25:52;;;;;;;36.80;19.63;;;9.60;70.80;;;;;;4970868;28;20263;-90
2022/01/23 11:28:29;;;;;;;37.10;21.37;;;9.60;70.00;;;;;;4978294;28;20183;-90
2022/01/23 11:30:56;;;;;;;43.50;21.95;;;9.70;70.20;;;;;;4980171;28;20179;-89
2022/01/23 11:33:22;;;;;;;43.38;24.60;;;9.70;70.20;;;;;;4998239;28;20191;-89
2022/01/23 11:35:48;;;;;;;43.07;24.60;;;9.70;70.20;;;;;;4980792;28;20576;-89
2022/01/23 11:38:18;;;;;;;41.38;21.88;;;9.70;70.20;;;;;;4979464;28;20446;-89
2022/01/23 11:54:37;;;;;;;42.90;22.30;;;9.60;69.30;;;;;;4992146;28;20298;-90
2022/01/23 11:57:57;;;;;;;41.08;21.90;;;9.60;69.90;;;;;;4976174;28;20175;-90
2022/01/23 12:00:32;;;;;;;42.15;21.17;;;9.70;69.90;;;;;;4976400;28;20635;-90
2022/01/23 12:03:17;;;;;;;36.10;21.50;;;9.70;70.00;;;;;;4975402;28;20259;-90
2022/01/23 12:05:50;;;;;;;35.90;20.17;;;9.70;70.10;;;;;;4980388;28;20224;-90
2022/01/23 12:08:28;;;;;;;41.65;21.45;;;9.70;70.30;;;;;;4993484;28;20244;-90
2022/01/23 12:11:38;;;;;;;37.42;20.52;;;9.70;70.50;;;;;;4975616;28;20179;-90
2022/01/23 12:17:00;;;;;;;36.25;19.80;;;9.80;69.30;;;;;;4990704;28;20232;-89
2022/01/23 12:19:32;;;;;;;34.00;17.20;;;9.80;69.00;;;;;;4962062;28;1214512;-90
2022/01/23 12:22:18;;;;;;;33.00;19.33;;;9.80;69.40;;;;;;4998841;28;20465;-90
2022/01/23 12:24:49;;;;;;;36.90;18.67;;;9.50;67.90;;;;;;4984718;28;20289;-89
2022/01/23 12:27:28;;;;;;;35.05;20.13;;;9.60;68.10;;;;;;4974175;28;20179;-90
2022/01/23 12:30:12;;;;;;;35.40;19.48;;;9.60;68.00;;;;;;4995413;28;20245;-89
2022/01/23 12:32:38;;;;;;;27.75;17.75;;;9.60;68.00;;;;;;4977634;28;20632;-90
2022/01/23 12:35:07;;;;;;;26.35;17.00;;;9.40;68.50;;;;;;4962307;28;20221;-90
2022/01/23 12:38:00;;;;;;;29.23;17.98;;;9.40;69.10;;;;;;4978909;28;20179;-90
2022/01/23 12:40:37;;;;;;;26.05;15.52;;;9.40;69.50;;;;;;4978418;28;20204;-90
2022/01/23 12:43:04;;;;;;;26.65;16.77;;;9.40;68.40;;;;;;4979211;28;20189;-90
2022/01/23 12:45:56;;;;;;;36.55;19.40;;;9.30;67.90;;;;;;4980683;28;20207;-90
2022/01/23 12:48:25;;;;;;;28.23;15.90;;;9.20;68.00;;;;;;4986846;28;20181;-90
2022/01/23 12:50:58;;;;;;;33.42;17.55;;;9.40;68.80;;;;;;5011908;28;20186;-90
2022/01/23 12:53:57;;;;;;;34.13;18.80;;;9.40;69.40;;;;;;5000262;28;20190;-90
2022/01/23 12:56:30;;;;;;;34.42;17.88;;;9.60;69.30;;;;;;4975312;28;20255;-90
2022/01/23 12:59:04;;;;;;;19.75;13.85;;;9.40;67.40;;;;;;4992885;28;20659;-90
2022/01/23 13:01:30;;;;;;;24.05;13.80;;;9.00;66.10;;;;;;5003421;28;20206;-90
2022/01/23 13:03:59;;;;;;;26.55;14.63;;;8.80;66.40;;;;;;4982852;28;20676;-90
2022/01/23 13:06:35;;;;;;;26.35;14.50;;;8.60;66.50;;;;;;4979474;28;20194;-90
2022/01/23 13:14:44;;;;;;;27.13;15.40;;;8.80;66.90;;;;;;4997297;28;20196;-90
2022/01/23 13:17:29;;;;;;;25.77;15.07;;;8.60;67.20;;;;;;4980765;28;20182;-90
2022/01/23 13:30:55;;;;;;;21.73;12.63;;;8.90;66.90;;;;;;5008701;28;20174;-89
2022/01/23 13:33:24;;;;;;;20.77;11.52;;;8.80;65.90;;;;;;5005816;28;20666;-89
2022/01/23 13:35:52;;;;;;;21.90;12.55;;;8.90;65.70;;;;;;4970638;28;20211;-89
2022/01/23 13:38:52;;;;;;;23.92;11.45;;;8.80;65.40;;;;;;4983932;28;20189;-88
2022/01/23 13:41:25;;;;;;;22.52;13.60;;;8.60;65.30;;;;;;4984674;28;20238;-90
2022/01/23 13:52:34;;;;;;;27.42;15.10;;;8.80;65.80;;;;;;4996518;28;20167;-89
2022/01/23 13:58:11;;;;;;;25.50;15.55;;;9.00;65.80;;;;;;4998746;28;20222;-89
2022/01/23 14:00:33;;;;;;;24.20;14.32;;;9.10;66.20;;;;;;5004158;28;20203;-89
2022/01/23 14:02:59;;;;;;;26.27;14.15;;;9.20;66.00;;;;;;4991494;28;20706;-89
2022/01/23 14:05:31;;;;;;;20.47;13.23;;;9.10;65.70;;;;;;4982118;28;20203;-89
2022/01/23 14:07:59;;;;;;;22.80;14.27;;;9.10;65.90;;;;;;4980434;28;20190;-89
2022/01/23 14:10:38;;;;;;;33.33;18.08;;;9.10;65.50;;;;;;4979433;28;20205;-90
2022/01/23 14:13:19;;;;;;;30.90;16.50;;;9.00;65.60;;;;;;4987715;28;20679;-89
2022/01/23 14:15:47;;;;;;;22.42;13.73;;;9.10;66.30;;;;;;4982420;28;20233;-89
2022/01/23 14:18:19;;;;;;;24.20;12.80;;;9.00;66.00;;;;;;4983770;28;20231;-90
2022/01/23 14:20:56;;;;;;;28.02;14.18;;;8.80;65.70;;;;;;4988474;28;20209;-90
2022/01/23 14:23:21;;;;;;;20.00;12.52;;;8.60;66.10;;;;;;4988790;28;20163;-89
2022/01/23 14:25:59;;;;;;;22.73;14.10;;;8.80;66.60;;;;;;4988848;28;20576;-90
2022/01/23 14:28:40;;;;;;;26.88;13.18;;;9.00;66.20;;;;;;4986972;28;20407;-90
2022/01/23 14:31:19;;;;;;;22.35;13.05;;;8.90;65.90;;;;;;4985677;28;20575;-90
2022/01/23 14:33:50;;;;;;;25.90;13.88;;;8.90;65.90;;;;;;4985891;28;20274;-90
2022/01/23 14:36:19;;;;;;;27.17;15.10;;;9.00;65.70;;;;;;4996863;28;20156;-90
2022/01/23 14:38:58;;;;;;;31.85;15.20;;;9.00;65.50;;;;;;4978352;28;20187;-90
2022/01/23 14:41:25;;;;;;;27.77;14.32;;;9.20;65.70;;;;;;4979591;28;20620;-89
2022/01/23 14:43:51;;;;;;;26.92;14.68;;;9.20;65.40;;;;;;4980504;28;20254;-89
2022/01/23 15:32:46;;;;;;;32.65;17.20;;;8.90;67.40;;;;;;4977741;28;20211;-89
2022/01/23 15:35:13;;;;;;;27.48;15.18;;;9.00;66.90;;;;;;4964051;28;20183;-90
2022/01/23 15:37:40;;;;;;;21.92;10.88;;;9.00;65.80;;;;;;4969956;28;20276;-89
2022/01/23 15:40:11;;;;;;;19.98;11.45;;;8.90;64.90;;;;;;4968927;28;20259;-89
2022/01/23 15:42:38;;;;;;;24.75;14.38;;;9.00;64.40;;;;;;4961567;28;20184;-89
2022/01/23 15:45:06;;;;;;;29.50;15.80;;;9.00;64.20;;;;;;4961874;28;20639;-89
2022/01/23 15:47:32;;;;;;;27.65;15.85;;;9.00;64.50;;;;;;4965897;28;20190;-89
2022/01/23 15:50:01;;;;;;;29.42;16.83;;;9.10;64.90;;;;;;4969083;28;20604;-89
2022/01/23 15:52:26;;;;;;;28.15;16.33;;;9.00;65.20;;;;;;4961845;28;20215;-89
2022/01/23 15:54:54;;;;;;;29.10;17.97;;;9.00;65.20;;;;;;4961223;28;20247;-89
2022/01/23 15:57:20;;;;;;;11.88;5.88;;;9.10;65.30;;;;;;4960834;28;20187;-89
2022/01/23 15:59:46;;;;;;;16.23;9.23;;;8.80;63.40;;;;;;4961314;28;20742;-89
2022/01/23 16:02:13;;;;;;;24.27;13.60;;;8.80;62.20;;;;;;4962663;28;20465;-88
2022/01/23 16:04:39;;;;;;;10.20;5.90;;;8.70;63.10;;;;;;4961667;28;20180;-88
2022/01/23 16:07:11;;;;;;;12.90;7.40;;;8.40;62.80;;;;;;4962662;28;20208;-88
2022/01/23 16:09:37;;;;;;;17.17;9.38;;;8.30;62.30;;;;;;4961200;28;20199;-90
2022/01/23 16:12:03;;;;;;;16.27;11.73;;;8.30;62.90;;;;;;4960837;28;20190;-90
2022/01/23 16:14:29;;;;;;;20.00;10.77;;;8.50;63.40;;;;;;4961065;28;20455;-89
2022/01/23 16:16:55;;;;;;;23.97;10.67;;;8.50;63.40;;;;;;4959918;28;20550;-89
2022/01/23 16:19:21;;;;;;;13.45;8.27;;;8.60;63.10;;;;;;4968592;28;20188;-90
2022/01/23 16:21:51;;;;;;;15.57;8.68;;;8.70;63.10;;;;;;4977922;28;20230;-90
2022/01/23 16:24:17;;;;;;;15.13;9.77;;;8.60;62.40;;;;;;4967034;28;20184;-89
2022/01/23 16:26:43;;;;;;;20.83;13.17;;;8.80;62.80;;;;;;4970669;28;20187;-89
2022/01/23 16:29:09;;;;;;;23.67;15.10;;;8.60;63.00;;;;;;4979530;28;20200;-89
2022/01/23 16:31:35;;;;;;;25.77;15.52;;;8.50;63.70;;;;;;4981888;28;20442;-89
2022/01/23 16:34:02;;;;;;;22.92;11.95;;;8.50;64.40;;;;;;4981734;28;20172;-89
2022/01/23 16:36:28;;;;;;;24.15;14.70;;;8.50;64.80;;;;;;4968375;28;20191;-89
2022/01/23 16:38:53;;;;;;;30.13;16.10;;;8.50;64.50;;;;;;4961421;28;20176;-89
2022/01/23 16:41:37;;;;;;;36.07;18.90;;;8.60;64.60;;;;;;4960755;28;20211;-89
2022/01/23 16:44:04;;;;;;;27.20;14.85;;;8.60;64.50;;;;;;4965776;28;20553;-89
2022/01/23 16:46:30;;;;;;;27.77;12.27;;;8.70;64.40;;;;;;4978867;28;20184;-89
2022/01/23 16:48:56;;;;;;;23.40;13.68;;;8.80;64.40;;;;;;4985188;28;20222;-89
2022/01/23 16:51:22;;;;;;;20.83;12.83;;;8.80;64.70;;;;;;4979272;28;20183;-89
2022/01/23 16:53:48;;;;;;;37.43;14.90;;;8.80;64.40;;;;;;4991511;28;20438;-89
2022/01/23 16:56:17;;;;;;;26.10;14.18;;;8.80;64.40;;;;;;4960717;28;20466;-89
2022/01/23 16:58:43;;;;;;;21.50;8.85;;;8.70;64.20;;;;;;4963385;28;20579;-89
2022/01/23 17:01:09;;;;;;;11.25;7.10;;;8.50;63.90;;;;;;4976430;28;20292;-89
2022/01/23 17:03:35;;;;;;;11.00;7.10;;;8.60;63.40;;;;;;4996488;28;20201;-90
2022/01/23 17:06:01;;;;;;;13.05;8.10;;;8.50;63.10;;;;;;4967410;28;20175;-89
2022/01/23 17:08:27;;;;;;;12.97;9.23;;;8.40;62.80;;;;;;4969954;28;20183;-89
2022/01/23 17:10:53;;;;;;;14.60;7.40;;;8.20;62.20;;;;;;4966131;28;20628;-89
2022/01/23 17:13:22;;;;;;;15.38;8.65;;;8.20;62.60;;;;;;4965161;28;20443;-89
2022/01/23 17:15:48;;;;;;;12.70;7.88;;;8.40;62.90;;;;;;4984837;28;20183;-89
2022/01/23 17:18:14;;;;;;;21.80;13.27;;;8.40;62.50;;;;;;4975179;28;20186;-89
2022/01/23 17:20:40;;;;;;;29.53;15.60;;;8.40;62.80;;;;;;4979940;28;20769;-89
2022/01/23 17:23:06;;;;;;;27.45;16.25;;;8.40;63.80;;;;;;4979505;28;20175;-89
2022/01/23 17:25:32;;;;;;;27.15;16.23;;;8.10;64.50;;;;;;4981977;28;20183;-89